Grand Rapids, MI

4:48 AM EST on February 24, 2017 (GMT -0500)
Near Lake Michigan Dr and Collindale | | Change Station

Elev 748 ft 42.98 °N, 85.74 °W | Updated 44 seconds ago

Rain
Rain
36.7 °F
Feels Like 30 °F
N
10.0
Wind Variable Wind from East
Gusts 14.0 mph

Today
High -- | Low -- °F
--% Chance of Precip.
Yesterday
High -- | Low -- °F
Precip. -- in
Pressure 29.67 in
Visibility 10.0 miles
Clouds Mostly Cloudy 1000 ft
Overcast 2100 ft
Windchill 30 °F
Dew Point 34 °F
Humidity 91%
Rainfall 0.29 in
Snow Depth Not available.
7:26 AM 6:26 PM
Waning Crescent, 6% visible
SPECI KGRR 240940Z AUTO 07015KT 10SM VCTS -RA BKN010 OVC021 03/02 A2967 RMK AO2 PK WND 07029/0922 LTG DSNT ALQDS TSB15E36 P0009 T00280017
Pressure 29.67 in
Visibility 10.0 miles
Clouds Mostly Cloudy 1000 ft
Overcast 2100 ft
Windchill 30 °F
Dew Point 34 °F
Humidity 91%
Rainfall 0.29 in
Snow Depth Not available.
7:26 AM 6:26 PM
Waning Crescent, 6% visible
SPECI KGRR 240940Z AUTO 07015KT 10SM VCTS -RA BKN010 OVC021 03/02 A2967 RMK AO2 PK WND 07029/0922 LTG DSNT ALQDS TSB15E36 P0009 T00280017

Get Your Daily Forecast Email!

Thanks for signing up!

Be on the lookout for a verification email in your inbox.

You'll start receiving the daily forecast at 8 AM.

×

10-Day Weather Forecast

Almanac

Astronomy

Feb. 24, 2017 Rise Set
Actual Time
Civil Twilight
Nautical Twilight
Astronomical Twilight
Moon
Length of Visible Light
Length of Day
Tomorrow will be .
, % of the Moon is Illuminated

Today's Extremes

State Highs State Lows

Community

WunderPhotos

Upload Photos

1,962,540 photos uploaded!

WunderBlog® & News

Nearby

Air Quality

  Air Quality AQ Index Pollutant
Not available.

Snow Depth

Station Depth Elevation

Earthquake Activity

City Distance Mag. Time & Date
Minimum magnitude displayed is 2.5.

Coastal Water Temperatures

Place Temperature

Stations

Nearby Weather Stations

Station Location Temp. Windchill Dew Point Humidity Wind Precip. Elev Updated Type
                   

Watches & Warnings

There are currently no watches in effect.